Main page
Satellite images 15-day forecastsClimateMarine weather Cyclones Lightning AirportsFAQ Newsletter About
Weather : Europe Africa North America South America Asia Australia-Oceania Others
Languages Contact

Mangalore, India

Bajpe

latitude: 12-55N, longitude: 074-53E, elevation: 102 m


METAR: out of date (39381 hours)
short-TAF: VOML 240600Z 2409/2418 25015KT 6000 SCT008 SCT012 BKN080 TEMPO 2409/2418 3000 SHRA/RA SCT005 SCT012 FEW025CB BKN080
long-TAF: VOML 240300Z 2406/2512 25015KT 6000 SCT008 SCT012 BKN080 TEMPO 2409/2418 3000 SHRA/RA SCT005 SCT012 FEW025CB BKN080 TEMPO 2421/2503 3000 RA/DZ SCT005 SCT012 OVC080 TEMPO 2509/2512 3000 SHRA/RA SCT005 SCT012 FEW025CB BKN080

Time: 11:35 (06:05 UTC)

Forecast

The report was made 30 minutes ago, at 05:35 UTC  
Forecast valid from 24 at 09 UTC to 24 at 18 UTC
Wind 15 kt from the West/Southwest
Visibility 6000 m
Scattered clouds at a height of 800 ft
Scattered clouds at a height of 1200 ft
Broken clouds at a height of 8000 ft
Temporary
from 24 at 09 UTC to 24 at 18 UTC
Visibility 3000 m
Scattered clouds at a height of 500 ft
Scattered clouds at a height of 1200 ft
Few clouds at a height of 2500 ft , Cumulonimbus.
Broken clouds at a height of 8000 ft

Forecast

The report was made 3 hours and 16 minutes ago, at 02:49 UTC  
Forecast valid from 24 at 06 UTC to 25 at 12 UTC
Wind 15 kt from the West/Southwest
Visibility 6000 m
Scattered clouds at a height of 800 ft
Scattered clouds at a height of 1200 ft
Broken clouds at a height of 8000 ft
Temporary
from 24 at 09 UTC to 24 at 18 UTC
Visibility 3000 m
Scattered clouds at a height of 500 ft
Scattered clouds at a height of 1200 ft
Few clouds at a height of 2500 ft , Cumulonimbus.
Broken clouds at a height of 8000 ft
Temporary
from 24 at 21 UTC to 25 at 03 UTC
Visibility 3000 m
Scattered clouds at a height of 500 ft
Scattered clouds at a height of 1200 ft
Overcast at a height of 8000 ft
Temporary
from 25 at 09 UTC to 25 at 12 UTC
Visibility 3000 m
Scattered clouds at a height of 500 ft
Scattered clouds at a height of 1200 ft
Few clouds at a height of 2500 ft , Cumulonimbus.
Broken clouds at a height of 8000 ft
The information on this site is subject to a disclaimer
Weather : Europe Africa North America South America Asia Australia-Oceania Others
Satellite images 15-day forecastsClimateMarine weather Cyclones Lightning AirportsFAQ Languages Contact Newsletter About